createdAt,value
2022-09-23T00:01:26.637Z,54.08
2022-09-23T00:03:54.793Z,53.45
2022-09-23T00:06:24.408Z,52.38
2022-09-23T00:08:53.711Z,56.13
2022-09-23T00:11:24.250Z,54.90
2022-09-23T00:13:54.277Z,58.28
2022-09-23T00:16:25.677Z,53.55
2022-09-23T00:18:53.512Z,58.78
2022-09-23T00:21:22.827Z,56.25
2022-09-23T00:23:51.665Z,54.47
2022-09-23T00:26:23.017Z,55.40
2022-09-23T00:28:51.648Z,59.28
2022-09-23T00:31:21.673Z,55.63
2022-09-23T00:33:54.800Z,51.95
2022-09-23T00:36:23.018Z,55.80
2022-09-23T00:38:50.904Z,50.85
2022-09-23T00:41:20.121Z,52.33
2022-09-23T00:43:50.022Z,60.92
2022-09-23T00:46:21.529Z,53.35
2022-09-23T00:48:54.518Z,52.13
2022-09-23T00:51:25.751Z,52.13
2022-09-23T00:53:54.197Z,52.33
2022-09-23T00:56:24.557Z,53.97
2022-09-23T00:58:53.195Z,52.55
2022-09-23T01:01:21.894Z,50.00
2022-09-23T01:03:51.168Z,48.70
2022-09-23T01:06:19.143Z,58.40
2022-09-23T01:08:48.563Z,54.17
2022-09-23T01:11:31.965Z,57.55
2022-09-23T01:14:11.538Z,60.50
2022-09-23T01:16:45.055Z,57.08
2022-09-23T01:19:35.765Z,58.90
2022-09-23T01:22:11.589Z,69.53
2022-09-23T01:25:13.369Z,54.78
2022-09-23T01:28:08.737Z,56.88
2022-09-23T01:30:45.616Z,56.95
2022-09-23T01:33:21.309Z,52.88
2022-09-23T01:36:09.959Z,52.28
2022-09-23T01:38:44.804Z,54.88
2022-09-23T01:41:23.284Z,48.78
2022-09-23T01:43:57.126Z,54.10
2022-09-23T01:46:30.997Z,54.38
2022-09-23T01:49:07.781Z,54.45
2022-09-23T01:51:40.276Z,58.40
2022-09-23T01:54:15.726Z,53.30
2022-09-23T01:56:49.273Z,58.08
2022-09-23T01:59:22.675Z,54.67
2022-09-23T02:01:57.605Z,54.08
2022-09-23T02:04:31.343Z,56.03
2022-09-23T02:07:04.522Z,53.15
2022-09-23T02:09:37.603Z,60.70
2022-09-23T02:12:12.553Z,58.92
2022-09-23T02:14:46.522Z,55.33
2022-09-23T02:17:23.118Z,52.65
2022-09-23T02:19:56.316Z,58.33
2022-09-23T02:22:29.239Z,52.67
2022-09-23T02:24:58.170Z,53.35
2022-09-23T02:27:33.005Z,50.67
2022-09-23T02:30:08.874Z,53.00
2022-09-23T02:32:48.149Z,55.90
2022-09-23T02:35:22.580Z,51.65
2022-09-23T02:37:58.680Z,51.72
2022-09-23T02:40:35.577Z,51.05
2022-09-23T02:43:10.078Z,54.42
2022-09-23T02:45:39.198Z,59.20
2022-09-23T02:48:14.682Z,56.28
2022-09-23T02:50:42.630Z,51.03
2022-09-23T02:53:11.425Z,56.83
2022-09-23T02:55:41.348Z,55.10
2022-09-23T02:58:10.877Z,52.58
2022-09-23T03:00:50.046Z,50.80
2022-09-23T03:03:34.894Z,55.67
2022-09-23T03:06:15.133Z,53.95
2022-09-23T03:08:50.439Z,53.65
2022-09-23T03:11:19.163Z,48.83
2022-09-23T03:14:06.649Z,49.97
2022-09-23T03:16:41.080Z,50.33
2022-09-23T03:19:24.592Z,51.33
2022-09-23T03:22:00.721Z,57.70
2022-09-23T03:24:31.252Z,57.80
2022-09-23T03:27:03.024Z,51.50
2022-09-23T03:29:32.555Z,53.03
2022-09-23T03:32:01.530Z,58.00
2022-09-23T03:34:34.878Z,56.78
2022-09-23T03:37:08.664Z,56.47
2022-09-23T03:39:41.118Z,56.53
2022-09-23T03:42:16.719Z,52.95
2022-09-23T03:44:45.910Z,54.72
2022-09-23T03:47:15.148Z,55.72
2022-09-23T03:49:48.307Z,58.40
2022-09-23T03:52:17.187Z,55.67
2022-09-23T03:54:52.970Z,58.20
2022-09-23T03:57:22.480Z,55.95
2022-09-23T03:59:50.515Z,59.50
2022-09-23T04:02:19.355Z,59.53
2022-09-23T04:04:48.886Z,61.55
2022-09-23T04:07:17.305Z,60.30
2022-09-23T04:09:45.847Z,61.53
2022-09-23T04:12:16.110Z,61.30
2022-09-23T04:14:44.809Z,67.05
2022-09-23T04:17:14.172Z,57.05
2022-09-23T04:19:42.526Z,66.28
2022-09-23T04:22:12.024Z,62.67
2022-09-23T04:24:40.308Z,65.18
2022-09-23T04:27:08.481Z,68.13
2022-09-23T04:29:36.367Z,64.53
2022-09-23T04:32:04.211Z,62.92
2022-09-23T04:34:32.344Z,66.65
2022-09-23T04:37:00.148Z,64.13
2022-09-23T04:39:29.447Z,70.30
2022-09-23T04:41:57.693Z,66.00
2022-09-23T04:44:28.076Z,65.05
2022-09-23T04:46:56.260Z,66.88
2022-09-23T04:49:24.595Z,69.05
2022-09-23T04:51:52.618Z,69.45
2022-09-23T04:54:20.448Z,70.25
2022-09-23T04:56:49.978Z,70.68
2022-09-23T04:59:17.916Z,69.47
2022-09-23T05:01:45.855Z,70.10
2022-09-23T05:04:14.825Z,66.60
2022-09-23T05:06:43.906Z,70.45
2022-09-23T05:09:16.125Z,74.85
2022-09-23T05:11:44.976Z,73.45
2022-09-23T05:14:14.276Z,70.22
2022-09-23T05:16:42.322Z,70.70
2022-09-23T05:19:11.707Z,73.45
2022-09-23T05:21:39.528Z,71.85
2022-09-23T05:24:07.680Z,73.75
2022-09-23T05:26:35.773Z,74.93
2022-09-23T05:29:03.840Z,67.80
2022-09-23T05:31:33.286Z,72.82
2022-09-23T05:34:03.881Z,71.53
2022-09-23T05:36:37.869Z,78.20
2022-09-23T05:39:08.053Z,74.35
2022-09-23T05:41:36.470Z,79.93
2022-09-23T05:44:04.418Z,85.03
2022-09-23T05:46:34.269Z,76.07
2022-09-23T05:49:03.738Z,81.85
2022-09-23T05:51:33.350Z,81.53
2022-09-23T05:54:03.953Z,85.85
2022-09-23T05:56:33.054Z,90.32
2022-09-23T05:59:02.495Z,88.03
2022-09-23T06:01:33.883Z,100.15
2022-09-23T06:04:05.874Z,99.75
2022-09-23T06:06:36.429Z,100.32
2022-09-23T06:09:05.899Z,98.53
2022-09-23T06:11:36.953Z,100.93
2022-09-23T06:14:05.970Z,94.90
2022-09-23T06:16:35.794Z,102.60
2022-09-23T06:19:07.000Z,102.20
2022-09-23T06:21:37.989Z,96.72
2022-09-23T06:24:08.338Z,98.60
2022-09-23T06:26:37.742Z,102.90
2022-09-23T06:29:11.439Z,103.43
2022-09-23T06:31:43.193Z,95.07
2022-09-23T06:34:15.050Z,99.85
2022-09-23T06:36:46.386Z,100.18
2022-09-23T06:39:15.309Z,96.05
2022-09-23T06:41:43.979Z,94.70
2022-09-23T06:44:12.510Z,101.05
2022-09-23T06:46:40.432Z,89.70
2022-09-23T06:49:08.272Z,91.65
2022-09-23T06:51:38.016Z,97.88
2022-09-23T06:54:06.241Z,94.70
2022-09-23T06:56:38.704Z,102.43
2022-09-23T06:59:10.518Z,97.90
2022-09-23T07:01:39.003Z,91.25
2022-09-23T07:04:07.661Z,88.30
2022-09-23T07:06:37.542Z,89.93
2022-09-23T07:09:07.081Z,86.65
2022-09-23T07:11:34.938Z,81.88
2022-09-23T07:14:03.495Z,79.22
2022-09-23T07:16:32.986Z,87.65
2022-09-23T07:19:00.792Z,74.43
2022-09-23T07:21:29.205Z,82.10
2022-09-23T07:23:58.877Z,82.35
2022-09-23T07:26:27.017Z,79.18
2022-09-23T07:28:56.547Z,71.47
2022-09-23T07:31:37.569Z,63.13
2022-09-23T07:34:07.957Z,71.28
2022-09-23T07:36:37.767Z,70.63
2022-09-23T07:39:07.660Z,71.32
2022-09-23T07:41:36.541Z,79.05
2022-09-23T07:44:06.036Z,73.78
2022-09-23T07:46:36.983Z,67.93
2022-09-23T07:49:06.523Z,63.70
2022-09-23T07:51:36.809Z,72.75
2022-09-23T07:54:08.779Z,63.60
2022-09-23T07:56:38.107Z,65.07
2022-09-23T07:59:09.055Z,67.28
2022-09-23T08:01:39.001Z,63.28
2022-09-23T08:04:09.511Z,69.13
2022-09-23T08:06:42.265Z,59.95
2022-09-23T08:09:12.867Z,64.45
2022-09-23T08:11:41.941Z,59.60
2022-09-23T08:14:10.744Z,59.47
2022-09-23T08:16:39.801Z,58.25
2022-09-23T08:19:08.067Z,57.88
2022-09-23T08:21:39.484Z,63.83
2022-09-23T08:24:09.828Z,59.70
2022-09-23T08:26:39.032Z,62.25
2022-09-23T08:29:09.787Z,62.83
2022-09-23T08:31:38.408Z,66.35
2022-09-23T08:34:06.713Z,56.78
2022-09-23T08:36:35.717Z,53.05
2022-09-23T08:39:04.417Z,51.42
2022-09-23T08:41:41.519Z,53.10
2022-09-23T08:44:14.802Z,43.00
2022-09-23T08:46:47.622Z,36.42
2022-09-23T08:49:25.314Z,44.58
2022-09-23T08:51:55.977Z,41.90
2022-09-23T08:54:29.256Z,41.75
2022-09-23T08:57:01.231Z,34.05
2022-09-23T08:59:38.858Z,31.65
2022-09-23T09:02:14.556Z,31.83
2022-09-23T09:04:45.475Z,33.05
2022-09-23T09:07:35.592Z,35.15
2022-09-23T09:10:11.140Z,23.08
2022-09-23T09:12:44.673Z,29.83
2022-09-23T09:15:16.317Z,28.52
2022-09-23T09:17:54.886Z,25.50
2022-09-23T09:20:34.267Z,24.58
2022-09-23T09:23:13.737Z,22.10
2022-09-23T09:25:45.348Z,22.23
2022-09-23T09:28:26.674Z,19.45
2022-09-23T09:30:58.022Z,21.93
2022-09-23T09:33:33.216Z,23.02
2022-09-23T09:36:19.634Z,19.65
2022-09-23T09:38:47.934Z,15.30
2022-09-23T09:41:17.814Z,18.30
2022-09-23T09:43:52.454Z,18.08
2022-09-23T09:46:34.990Z,14.60
2022-09-23T09:49:06.564Z,21.77
2022-09-23T09:51:35.524Z,13.27
2022-09-23T09:54:18.059Z,20.33
2022-09-23T09:59:23.429Z,17.52
2022-09-23T10:02:11.777Z,20.38
2022-09-23T10:04:40.069Z,14.93
2022-09-23T10:07:13.038Z,15.20
2022-09-23T10:09:48.381Z,19.17
2022-09-23T10:12:19.338Z,14.75
2022-09-23T10:14:51.399Z,17.65
2022-09-23T10:17:22.768Z,16.35
2022-09-23T10:19:58.062Z,12.00
2022-09-23T10:22:29.898Z,12.40
2022-09-23T10:25:03.313Z,11.45
2022-09-23T10:27:34.521Z,11.18
2022-09-23T10:30:06.474Z,11.77
2022-09-23T10:32:39.929Z,15.57
2022-09-23T10:35:16.421Z,9.98
2022-09-23T10:37:48.363Z,9.80
2022-09-23T10:40:37.293Z,8.48
2022-09-23T10:43:46.197Z,7.90
2022-09-23T10:46:39.715Z,8.55
2022-09-23T10:49:58.751Z,9.30
2022-09-23T10:52:43.688Z,14.63
2022-09-23T10:55:26.447Z,10.75
2022-09-23T10:58:09.276Z,9.18
2022-09-23T11:00:46.314Z,9.95
2022-09-23T11:03:54.067Z,10.50
2022-09-23T11:06:31.855Z,9.73
2022-09-23T11:09:26.435Z,7.38
2022-09-23T11:12:09.988Z,9.88
2022-09-23T11:15:00.519Z,9.23
2022-09-23T11:17:54.539Z,7.30
2022-09-23T11:20:40.568Z,8.35
2022-09-23T11:23:37.035Z,4.32
2022-09-23T11:26:17.078Z,7.90
2022-09-23T11:29:04.400Z,7.20
2022-09-23T11:31:39.555Z,4.18
2022-09-23T11:34:34.144Z,5.88
2022-09-23T11:37:08.891Z,7.38
2022-09-23T11:39:43.474Z,5.13
2022-09-23T11:42:18.427Z,4.47
2022-09-23T11:44:53.658Z,5.80
2022-09-23T11:47:26.586Z,5.35
2022-09-23T11:50:01.116Z,5.30
2022-09-23T11:52:34.613Z,6.00
2022-09-23T11:55:20.082Z,6.13
2022-09-23T11:57:51.998Z,6.85
2022-09-23T12:00:23.134Z,5.75
2022-09-23T12:03:05.458Z,6.57
2022-09-23T12:05:39.532Z,5.13
2022-09-23T12:08:18.663Z,5.50
2022-09-23T12:10:54.435Z,6.93
2022-09-23T12:13:27.578Z,8.27
2022-09-23T12:16:14.711Z,8.40
2022-09-23T12:19:04.103Z,8.50
2022-09-23T12:21:51.861Z,5.63
2022-09-23T12:24:35.550Z,7.68
2022-09-23T12:27:10.951Z,6.25
2022-09-23T12:29:41.738Z,5.03
2022-09-23T12:32:18.618Z,5.68
2022-09-23T12:34:51.988Z,6.93
2022-09-23T12:37:27.507Z,6.28
2022-09-23T12:40:00.912Z,4.45
2022-09-23T12:42:31.308Z,6.60
2022-09-23T12:45:19.870Z,6.63
2022-09-23T12:47:47.973Z,7.07
2022-09-23T12:50:51.928Z,4.68
2022-09-23T12:54:23.747Z,4.55
2022-09-23T12:57:11.732Z,6.18
2022-09-23T12:59:58.596Z,7.60
2022-09-23T13:02:34.596Z,7.30
2022-09-23T13:05:28.250Z,12.23
2022-09-23T13:08:01.168Z,6.95
2022-09-23T13:10:33.006Z,5.00
2022-09-23T13:13:03.360Z,9.60
2022-09-23T13:15:34.925Z,6.72
2022-09-23T13:18:25.117Z,6.53
2022-09-23T13:20:54.903Z,6.72
2022-09-23T13:23:24.750Z,4.63
2022-09-23T13:25:55.289Z,3.83
2022-09-23T13:28:36.861Z,5.05
2022-09-23T13:31:07.155Z,9.90
2022-09-23T13:33:43.220Z,24.00
2022-09-23T13:36:15.030Z,28.58
2022-09-23T13:38:43.669Z,14.27
2022-09-23T13:41:16.197Z,7.30
2022-09-23T13:43:49.066Z,6.82
2022-09-23T13:46:19.247Z,4.97
2022-09-23T13:48:49.870Z,6.50
2022-09-23T13:51:24.635Z,7.63
2022-09-23T13:53:55.282Z,6.32
2022-09-23T13:56:25.270Z,4.47
2022-09-23T13:58:55.818Z,5.65
2022-09-23T14:01:30.857Z,4.10
2022-09-23T14:03:59.489Z,7.13
2022-09-23T14:06:31.641Z,9.75
2022-09-23T14:09:03.190Z,5.55
2022-09-23T14:11:35.168Z,5.65
2022-09-23T14:14:07.134Z,8.45
2022-09-23T14:16:39.291Z,8.57
2022-09-23T14:21:37.634Z,8.25
2022-09-23T14:24:15.654Z,5.78
2022-09-23T14:26:47.801Z,10.80
2022-09-23T14:29:19.247Z,17.70
2022-09-23T14:31:56.648Z,17.55
2022-09-23T14:34:46.958Z,7.25
2022-09-23T14:37:40.886Z,5.88
2022-09-23T14:40:13.857Z,8.18
2022-09-23T14:42:44.512Z,21.05
2022-09-23T14:45:18.545Z,31.35
2022-09-23T14:47:50.410Z,22.52
2022-09-23T14:50:39.289Z,11.63
2022-09-23T14:53:33.570Z,15.38
2022-09-23T14:56:22.030Z,8.43
2022-09-23T14:58:53.472Z,11.10
2022-09-23T15:01:41.083Z,5.40
2022-09-23T15:04:18.254Z,5.18
2022-09-23T15:06:51.171Z,4.32
2022-09-23T15:09:24.607Z,6.53
2022-09-23T15:11:54.862Z,4.10
2022-09-23T15:14:39.818Z,5.32
2022-09-23T15:17:32.450Z,6.63
2022-09-23T15:20:03.349Z,5.07
2022-09-23T15:22:31.334Z,5.82
2022-09-23T15:25:17.369Z,5.18
2022-09-23T15:27:57.642Z,6.82
2022-09-23T15:30:26.050Z,6.55
2022-09-23T15:32:55.602Z,5.72
2022-09-23T15:35:26.610Z,5.93
2022-09-23T15:37:58.160Z,6.93
2022-09-23T15:40:28.123Z,7.28
2022-09-23T15:42:58.641Z,6.43
2022-09-23T15:45:33.678Z,7.40
2022-09-23T15:48:08.284Z,6.22
2022-09-23T15:50:37.409Z,8.10
2022-09-23T15:53:06.176Z,8.20
2022-09-23T15:55:34.309Z,13.98
2022-09-23T15:58:02.382Z,13.45
2022-09-23T16:00:30.595Z,9.23
2022-09-23T16:02:58.430Z,9.27
2022-09-23T16:05:34.106Z,8.18
2022-09-23T16:08:08.485Z,10.60
2022-09-23T16:10:37.392Z,9.30
2022-09-23T16:13:08.835Z,9.88
2022-09-23T16:15:39.010Z,23.08
2022-09-23T16:18:07.969Z,43.67
2022-09-23T16:20:38.652Z,21.23
2022-09-23T16:23:08.605Z,18.73
2022-09-23T16:25:37.953Z,10.13
2022-09-23T16:28:05.826Z,8.55
2022-09-23T16:30:35.100Z,8.32
2022-09-23T16:33:02.965Z,8.40
2022-09-23T16:35:41.733Z,8.68
2022-09-23T16:38:09.910Z,9.00
2022-09-23T16:40:37.762Z,17.83
2022-09-23T16:43:06.066Z,10.90
2022-09-23T16:45:34.670Z,11.20
2022-09-23T16:48:03.075Z,10.38
2022-09-23T16:50:31.926Z,11.05
2022-09-23T16:53:01.522Z,12.05
2022-09-23T16:55:29.562Z,10.93
2022-09-23T16:57:57.375Z,15.05
2022-09-23T17:00:43.038Z,10.70
2022-09-23T17:03:30.862Z,10.63
2022-09-23T17:06:00.689Z,10.27
2022-09-23T17:08:32.383Z,10.63
2022-09-23T17:11:01.760Z,13.32
2022-09-23T17:13:31.083Z,11.13
2022-09-23T17:15:59.298Z,10.85
2022-09-23T17:18:27.951Z,10.98
2022-09-23T17:21:00.321Z,11.60
2022-09-23T17:23:28.593Z,14.18
2022-09-23T17:25:57.912Z,11.68
2022-09-23T17:28:26.320Z,14.32
2022-09-23T17:30:58.832Z,21.13
2022-09-23T17:35:55.081Z,32.85
2022-09-23T17:38:27.969Z,33.15
2022-09-23T17:41:01.146Z,38.88
2022-09-23T17:43:31.576Z,36.78
2022-09-23T17:46:05.199Z,40.05
2022-09-23T17:48:36.059Z,41.53
2022-09-23T17:51:05.668Z,39.80
2022-09-23T17:53:35.954Z,67.07
2022-09-23T17:56:07.740Z,54.30
2022-09-23T17:58:37.518Z,28.65
2022-09-23T18:01:06.485Z,37.47
2022-09-23T18:03:34.409Z,39.08
2022-09-23T18:06:10.157Z,53.17
2022-09-23T18:08:39.262Z,65.95
2022-09-23T18:11:19.435Z,67.75
2022-09-23T18:13:52.446Z,57.63
2022-09-23T18:16:22.422Z,51.72
2022-09-23T18:18:51.938Z,47.13
2022-09-23T18:21:20.514Z,43.65
2022-09-23T18:23:48.704Z,46.05
2022-09-23T18:26:19.563Z,44.53
2022-09-23T18:28:48.060Z,42.20
2022-09-23T18:31:16.809Z,45.33
2022-09-23T18:33:49.277Z,47.90
2022-09-23T18:36:17.235Z,42.13
2022-09-23T18:38:45.836Z,45.47
2022-09-23T18:41:14.641Z,34.92
2022-09-23T18:43:48.336Z,35.58
2022-09-23T18:46:18.584Z,41.90
2022-09-23T18:49:04.471Z,36.85
2022-09-23T18:51:34.608Z,41.17
2022-09-23T18:54:05.317Z,44.45
2022-09-23T18:56:37.227Z,45.83
2022-09-23T18:59:08.515Z,46.72
2022-09-23T19:01:36.782Z,41.30
2022-09-23T19:04:05.089Z,37.67
2022-09-23T19:06:34.679Z,41.15
2022-09-23T19:09:02.995Z,49.58
2022-09-23T19:11:31.848Z,48.10
2022-09-23T19:14:02.104Z,46.55
2022-09-23T19:16:32.210Z,40.80
2022-09-23T19:19:00.408Z,48.33
2022-09-23T19:21:29.686Z,43.60
2022-09-23T19:24:03.344Z,43.75
2022-09-23T19:26:34.118Z,41.97
2022-09-23T19:29:04.256Z,47.08
2022-09-23T19:31:35.865Z,43.00
2022-09-23T19:34:10.046Z,57.78
2022-09-23T19:36:39.775Z,55.50
2022-09-23T19:39:09.937Z,58.78
2022-09-23T19:41:38.026Z,55.72
2022-09-23T19:44:07.649Z,61.67
2022-09-23T19:46:39.529Z,54.72
2022-09-23T19:49:08.676Z,52.60
2022-09-23T19:51:36.898Z,53.15
2022-09-23T19:54:07.133Z,59.50
2022-09-23T19:56:35.722Z,65.30
2022-09-23T19:59:05.780Z,53.60
2022-09-23T20:01:35.090Z,50.88
2022-09-23T20:04:05.570Z,61.13
2022-09-23T20:06:37.930Z,53.33
2022-09-23T20:09:07.022Z,57.58
2022-09-23T20:11:35.238Z,69.95
2022-09-23T20:14:05.792Z,56.30
2022-09-23T20:16:38.530Z,56.55
2022-09-23T20:19:08.030Z,54.95
2022-09-23T20:21:36.374Z,58.90
2022-09-23T20:24:06.873Z,63.50
2022-09-23T20:26:52.815Z,68.47
2022-09-23T20:29:21.529Z,65.28
2022-09-23T20:31:49.820Z,66.97
2022-09-23T20:34:19.480Z,68.88
2022-09-23T20:36:47.500Z,62.47
2022-09-23T20:39:15.870Z,65.68
2022-09-23T20:41:43.684Z,68.47
2022-09-23T20:44:13.038Z,74.00
2022-09-23T20:46:46.978Z,70.53
2022-09-23T20:49:17.674Z,74.05
2022-09-23T20:51:48.703Z,77.30
2022-09-23T20:54:18.909Z,65.05
2022-09-23T20:56:47.040Z,64.43
2022-09-23T20:59:17.489Z,61.70
2022-09-23T21:01:45.478Z,55.63
2022-09-23T21:04:13.773Z,65.28
2022-09-23T21:06:41.730Z,67.97
2022-09-23T21:09:10.998Z,57.13
2022-09-23T21:11:39.399Z,64.65
2022-09-23T21:14:07.531Z,67.38
2022-09-23T21:16:35.461Z,67.93
2022-09-23T21:19:07.956Z,66.40
2022-09-23T21:21:36.670Z,57.50
2022-09-23T21:24:31.317Z,53.25
2022-09-23T21:26:54.227Z,60.28
2022-09-23T21:29:22.982Z,55.17
2022-09-23T21:31:50.866Z,57.42
2022-09-23T21:34:19.672Z,54.42
2022-09-23T21:36:48.769Z,54.10
2022-09-23T21:39:16.628Z,48.85
2022-09-23T21:41:44.836Z,50.05
2022-09-23T21:44:14.372Z,46.30
2022-09-23T21:46:42.563Z,53.17
2022-09-23T21:49:10.772Z,44.15
2022-09-23T21:51:41.463Z,43.80
2022-09-23T21:54:14.431Z,40.70
2022-09-23T21:56:43.866Z,41.35
2022-09-23T21:59:11.925Z,40.05
2022-09-23T22:01:43.601Z,42.17
2022-09-23T22:04:15.581Z,46.42
2022-09-23T22:06:43.933Z,42.50
2022-09-23T22:09:14.212Z,39.15
2022-09-23T22:12:00.673Z,38.70
2022-09-23T22:14:30.440Z,37.67
2022-09-23T22:17:02.589Z,38.85
2022-09-23T22:19:34.849Z,39.67
2022-09-23T22:22:06.669Z,37.30
2022-09-23T22:24:34.808Z,35.35
2022-09-23T22:27:02.650Z,40.47
2022-09-23T22:29:48.349Z,37.97
2022-09-23T22:32:35.443Z,40.15
2022-09-23T22:35:03.558Z,38.05
2022-09-23T22:37:34.110Z,37.97
2022-09-23T22:40:02.694Z,30.58
2022-09-23T22:42:30.947Z,34.08
2022-09-23T22:44:58.973Z,30.40
2022-09-23T22:47:28.361Z,36.38
2022-09-23T22:49:56.276Z,33.78
2022-09-23T22:52:25.153Z,39.28
2022-09-23T22:54:53.453Z,33.92
2022-09-23T22:57:21.392Z,34.22
2022-09-23T22:59:49.509Z,38.38
2022-09-23T23:02:18.095Z,38.97
2022-09-23T23:04:48.475Z,38.35
2022-09-23T23:07:20.367Z,39.53
2022-09-23T23:09:48.671Z,38.08
2022-09-23T23:12:16.845Z,34.55
2022-09-23T23:14:45.210Z,41.83
2022-09-23T23:17:13.218Z,34.05
2022-09-23T23:19:41.162Z,40.83
2022-09-23T23:22:10.623Z,31.95
2022-09-23T23:24:38.533Z,30.52
2022-09-23T23:27:06.333Z,34.95
2022-09-23T23:29:34.414Z,31.35
2022-09-23T23:32:02.908Z,34.08
2022-09-23T23:34:30.678Z,32.90
2022-09-23T23:36:58.655Z,33.17
2022-09-23T23:39:28.056Z,30.40
2022-09-23T23:41:57.454Z,38.95
2022-09-23T23:44:26.831Z,35.25
2022-09-23T23:46:55.638Z,40.22
2022-09-23T23:49:25.615Z,38.08
2022-09-23T23:51:53.689Z,39.53
2022-09-23T23:54:21.705Z,33.65
2022-09-23T23:56:50.984Z,39.05
2022-09-23T23:59:20.142Z,33.17
